Time;durP1;ratioP1;P1;durP2;ratioP2;P2;SDS_P1;SDS_P2;PMS_P1;PMS_P2;Temp;Humidity;BMP_temperature;BMP_pressure;BME280_temperature;BME280_humidity;BME280_pressure;Samples;Min_cycle;Max_cycle;Signal;HPM_P1;HPM_P2
2021/10/01 00:00:10;;;;;;;6.35;3.25;;;9.20;67.60;;;;;;1872916;77;21055;-47
2021/10/01 00:02:39;;;;;;;3.40;3.08;;;9.20;67.60;;;;;;1889637;75;21159;-50
2021/10/01 00:05:09;;;;;;;7.45;3.05;;;9.10;67.60;;;;;;1891802;75;21042;-49
2021/10/01 00:07:38;;;;;;;5.12;3.65;;;9.20;67.70;;;;;;1891856;76;21088;-49
2021/10/01 00:10:08;;;;;;;3.58;3.25;;;9.20;67.70;;;;;;1891936;75;21069;-49
2021/10/01 00:12:38;;;;;;;5.03;3.70;;;9.10;67.60;;;;;;1891885;76;21026;-50
2021/10/01 00:15:08;;;;;;;3.62;2.95;;;9.10;67.70;;;;;;1891854;76;21006;-46
2021/10/01 00:17:38;;;;;;;3.92;2.83;;;9.10;67.70;;;;;;1891846;75;21002;-48
2021/10/01 00:20:08;;;;;;;2.92;2.55;;;9.00;67.70;;;;;;1891958;76;21108;-46
2021/10/01 00:22:38;;;;;;;4.22;2.92;;;9.00;67.90;;;;;;1891872;76;21097;-46
2021/10/01 00:25:08;;;;;;;5.05;3.83;;;9.00;67.80;;;;;;1891822;76;21006;-47
2021/10/01 00:27:38;;;;;;;3.98;3.30;;;9.00;67.80;;;;;;1891851;76;21092;-49
2021/10/01 00:30:08;;;;;;;4.47;3.08;;;9.00;68.00;;;;;;1891767;76;21007;-46
2021/10/01 00:32:38;;;;;;;5.10;3.45;;;9.00;68.00;;;;;;1891965;76;21050;-51
2021/10/01 00:35:07;;;;;;;3.77;3.40;;;9.00;68.10;;;;;;1891906;76;21096;-46
2021/10/01 00:37:38;;;;;;;5.35;3.67;;;9.00;68.10;;;;;;1892026;76;21039;-46
2021/10/01 00:40:07;;;;;;;4.17;3.77;;;9.00;68.20;;;;;;1891949;76;21101;-48
2021/10/01 00:42:37;;;;;;;4.05;3.30;;;9.00;68.20;;;;;;1891938;76;21006;-46
2021/10/01 00:45:07;;;;;;;7.65;3.70;;;9.00;68.20;;;;;;1891952;76;21084;-46
2021/10/01 00:47:36;;;;;;;3.90;3.25;;;9.00;68.10;;;;;;1892073;76;21034;-50
2021/10/01 00:50:07;;;;;;;4.25;3.67;;;9.10;68.20;;;;;;1892020;76;21026;-48
2021/10/01 00:52:37;;;;;;;4.25;3.65;;;9.10;68.30;;;;;;1891985;76;21027;-46
2021/10/01 00:55:07;;;;;;;9.33;3.62;;;9.10;68.20;;;;;;1891961;76;21042;-49
2021/10/01 00:57:36;;;;;;;4.00;3.50;;;9.10;68.00;;;;;;1892016;76;21076;-47
2021/10/01 01:00:10;;;;;;;5.72;3.65;;;9.00;68.10;;;;;;1892037;76;21050;-48
2021/10/01 01:02:37;;;;;;;3.15;2.65;;;9.00;68.20;;;;;;1891844;75;21123;-50
2021/10/01 01:05:07;;;;;;;3.50;3.20;;;9.00;68.20;;;;;;1891915;75;21050;-49
2021/10/01 01:07:51;;;;;;;4.83;3.17;;;9.00;68.20;;;;;;1892045;75;21003;-50
2021/10/01 01:10:36;;;;;;;12.10;3.98;;;9.00;68.40;;;;;;1891970;75;21591;-48
2021/10/01 01:13:14;;;;;;;4.33;3.87;;;9.00;68.50;;;;;;1892130;75;21108;-47
2021/10/01 01:15:55;;;;;;;6.15;4.17;;;9.10;68.50;;;;;;1892152;76;21038;-49
2021/10/01 01:18:33;;;;;;;3.62;3.08;;;9.10;68.50;;;;;;1892188;76;21010;-47
2021/10/01 01:21:04;;;;;;;4.28;3.55;;;9.10;68.30;;;;;;1891804;75;21440;-50
2021/10/01 01:23:51;;;;;;;4.25;3.15;;;9.10;68.20;;;;;;1892072;76;21018;-46
2021/10/01 01:26:32;;;;;;;4.60;3.60;;;9.10;68.20;;;;;;1891660;75;21007;-49
2021/10/01 01:29:33;;;;;;;5.87;3.58;;;9.10;68.10;;;;;;1892011;76;21108;-47
2021/10/01 01:32:11;;;;;;;3.55;3.20;;;9.10;68.10;;;;;;1891609;75;21088;-51
2021/10/01 01:34:46;;;;;;;3.50;3.20;;;9.10;68.20;;;;;;1891832;75;21115;-46
2021/10/01 01:37:21;;;;;;;5.37;3.45;;;9.10;68.20;;;;;;1891934;75;21050;-46
2021/10/01 01:39:52;;;;;;;3.60;3.25;;;9.10;68.30;;;;;;1892205;76;21108;-49
2021/10/01 01:42:24;;;;;;;3.80;2.37;;;9.10;68.00;;;;;;1892132;76;21035;-47
2021/10/01 01:44:54;;;;;;;3.58;2.90;;;9.00;67.50;;;;;;1891891;76;21092;-49
2021/10/01 01:47:24;;;;;;;5.80;3.85;;;9.00;67.80;;;;;;1891992;76;21093;-49
2021/10/01 01:49:55;;;;;;;3.37;2.77;;;9.00;67.90;;;;;;1891883;76;21089;-49
2021/10/01 01:52:25;;;;;;;3.37;3.08;;;9.00;67.90;;;;;;1891950;76;21073;-49
2021/10/01 01:54:55;;;;;;;5.22;3.20;;;9.00;67.80;;;;;;1891978;75;21092;-49
2021/10/01 01:57:25;;;;;;;4.95;3.55;;;8.90;67.80;;;;;;1892013;76;21066;-50
2021/10/01 01:59:57;;;;;;;4.65;3.02;;;8.90;67.80;;;;;;1891903;76;21022;-48
2021/10/01 02:02:29;;;;;;;4.30;3.60;;;8.90;67.70;;;;;;1885269;75;21132;-49
2021/10/01 02:04:58;;;;;;;5.03;3.47;;;8.90;67.80;;;;;;1873026;76;21159;-49
2021/10/01 02:07:29;;;;;;;6.03;3.30;;;8.90;68.00;;;;;;1872866;77;21035;-49
2021/10/01 02:09:59;;;;;;;5.47;3.72;;;8.90;67.70;;;;;;1872913;77;21054;-47
2021/10/01 02:12:29;;;;;;;6.28;3.30;;;8.90;67.60;;;;;;1872959;76;21068;-46
2021/10/01 02:15:00;;;;;;;3.75;2.95;;;8.90;67.60;;;;;;1872832;77;21027;-48
2021/10/01 02:17:32;;;;;;;3.90;3.37;;;8.90;67.50;;;;;;1872866;76;21031;-47
2021/10/01 02:20:02;;;;;;;4.28;3.70;;;8.90;67.80;;;;;;1872635;76;21007;-46
2021/10/01 02:22:33;;;;;;;4.97;3.12;;;8.90;67.50;;;;;;1872937;76;21019;-49
2021/10/01 02:25:02;;;;;;;4.65;3.25;;;8.90;67.30;;;;;;1872924;75;21101;-49
2021/10/01 02:27:46;;;;;;;5.47;3.90;;;9.00;67.50;;;;;;1872831;77;21027;-49
2021/10/01 02:30:17;;;;;;;5.40;3.92;;;9.00;67.30;;;;;;1872801;75;21470;-47
2021/10/01 02:33:01;;;;;;;4.00;3.55;;;9.00;67.30;;;;;;1872579;76;21509;-46
2021/10/01 02:35:31;;;;;;;4.83;3.75;;;9.00;67.50;;;;;;1872592;76;21149;-46
2021/10/01 02:38:01;;;;;;;4.75;3.55;;;9.00;67.00;;;;;;1872995;76;21058;-48
2021/10/01 02:40:31;;;;;;;3.98;2.27;;;9.00;66.80;;;;;;1872870;77;21078;-46
2021/10/01 02:43:01;;;;;;;6.10;4.85;;;8.90;66.40;;;;;;1872932;77;21071;-46
2021/10/01 02:45:30;;;;;;;4.97;4.20;;;8.90;67.00;;;;;;1872817;77;21140;-47
2021/10/01 02:48:01;;;;;;;5.45;3.92;;;8.90;66.60;;;;;;1872798;75;21165;-49
2021/10/01 02:50:31;;;;;;;3.77;3.47;;;8.90;66.20;;;;;;1872827;77;21027;-48
2021/10/01 02:53:06;;;;;;;3.98;3.45;;;8.80;66.40;;;;;;1872847;77;21062;-49
2021/10/01 02:55:40;;;;;;;5.05;3.75;;;8.80;66.50;;;;;;1872720;76;21113;-47
2021/10/01 02:58:27;;;;;;;3.55;2.90;;;8.80;66.50;;;;;;1872777;75;21461;-48
2021/10/01 03:00:58;;;;;;;3.72;3.15;;;8.80;66.50;;;;;;1872901;77;21019;-48
2021/10/01 03:03:30;;;;;;;6.00;2.83;;;8.80;66.50;;;;;;1877216;75;21055;-47
2021/10/01 03:06:01;;;;;;;7.90;3.80;;;8.80;66.50;;;;;;1882448;76;21551;-49
2021/10/01 03:08:32;;;;;;;3.45;2.98;;;8.80;66.90;;;;;;1882329;76;21074;-45
2021/10/01 03:11:02;;;;;;;3.65;3.12;;;8.80;66.60;;;;;;1882368;75;21027;-46
2021/10/01 03:13:34;;;;;;;3.80;3.40;;;8.80;66.70;;;;;;1882361;76;21124;-47
2021/10/01 03:16:04;;;;;;;3.85;3.45;;;8.80;66.80;;;;;;1882347;76;21089;-49
2021/10/01 03:18:34;;;;;;;6.17;3.55;;;8.80;66.80;;;;;;1882495;76;21152;-46
2021/10/01 03:21:06;;;;;;;4.55;3.37;;;8.80;66.80;;;;;;1882344;76;21035;-47
2021/10/01 03:23:38;;;;;;;8.53;4.15;;;8.90;66.80;;;;;;1882205;75;21070;-48
2021/10/01 03:26:08;;;;;;;6.08;3.50;;;8.80;66.30;;;;;;1882397;76;21023;-46
2021/10/01 03:28:38;;;;;;;4.47;3.52;;;8.90;66.80;;;;;;1882255;75;21026;-47
2021/10/01 03:31:08;;;;;;;5.42;4.28;;;8.90;66.60;;;;;;1882322;75;21085;-50
2021/10/01 03:33:38;;;;;;;3.45;2.80;;;8.90;66.60;;;;;;1882354;76;21155;-45
2021/10/01 03:36:08;;;;;;;5.22;4.00;;;8.90;66.50;;;;;;1882398;76;21019;-48
2021/10/01 03:38:39;;;;;;;4.53;3.90;;;8.90;67.00;;;;;;1882393;75;21108;-46
2021/10/01 03:41:09;;;;;;;5.58;3.77;;;9.00;66.90;;;;;;1882343;76;21097;-49
2021/10/01 03:43:39;;;;;;;4.45;4.03;;;9.00;66.60;;;;;;1882410;76;21030;-48
2021/10/01 03:46:08;;;;;;;5.15;3.62;;;9.00;66.60;;;;;;1882314;76;21026;-47
2021/10/01 03:48:38;;;;;;;9.10;4.62;;;9.00;66.20;;;;;;1882222;76;21006;-49
2021/10/01 03:51:08;;;;;;;4.40;3.50;;;9.00;66.00;;;;;;1882453;76;21090;-49
2021/10/01 03:53:40;;;;;;;10.70;4.85;;;9.00;65.80;;;;;;1882170;75;21030;-45
2021/10/01 03:56:19;;;;;;;5.95;4.17;;;9.00;66.50;;;;;;1882265;76;21022;-46
2021/10/01 03:58:41;;;;;;;3.98;3.58;;;9.00;65.70;;;;;;1881087;76;21101;-49
2021/10/01 04:01:10;;;;;;;7.72;4.05;;;9.00;65.60;;;;;;1882386;76;21027;-49
2021/10/01 04:03:40;;;;;;;8.35;5.70;;;9.00;65.60;;;;;;1879483;75;21042;-49
2021/10/01 04:06:10;;;;;;;3.98;3.58;;;9.00;66.00;;;;;;1872891;76;21050;-46
2021/10/01 04:08:39;;;;;;;9.18;5.00;;;9.00;65.80;;;;;;1872803;76;21035;-46
2021/10/01 04:11:09;;;;;;;15.48;7.12;;;9.00;65.70;;;;;;1872870;76;21055;-48
2021/10/01 04:13:39;;;;;;;14.25;5.85;;;9.00;65.30;;;;;;1873046;76;21021;-47
2021/10/01 04:16:09;;;;;;;7.85;5.35;;;9.00;65.50;;;;;;1873005;77;21023;-49
2021/10/01 04:18:40;;;;;;;9.10;6.17;;;9.00;65.50;;;;;;1872811;76;21030;-46
2021/10/01 04:21:09;;;;;;;11.68;5.87;;;9.00;65.50;;;;;;1873095;77;21027;-48
2021/10/01 04:23:41;;;;;;;9.28;5.03;;;9.00;65.60;;;;;;1872808;76;21027;-46
2021/10/01 04:26:11;;;;;;;4.95;2.98;;;9.00;65.50;;;;;;1859057;76;21093;-48
2021/10/01 04:28:41;;;;;;;6.45;4.33;;;9.00;64.90;;;;;;1872797;75;21027;-45
2021/10/01 04:31:10;;;;;;;5.22;3.65;;;9.10;65.30;;;;;;1872884;75;21101;-48
2021/10/01 04:33:41;;;;;;;5.22;4.70;;;9.00;65.10;;;;;;1872745;76;21026;-45
2021/10/01 04:36:12;;;;;;;6.10;4.05;;;9.10;65.60;;;;;;1872769;75;21210;-46
2021/10/01 04:38:43;;;;;;;4.05;3.00;;;9.10;65.60;;;;;;1872960;77;21090;-48
2021/10/01 04:41:13;;;;;;;4.12;3.35;;;9.10;65.20;;;;;;1872989;76;21031;-47
2021/10/01 04:43:42;;;;;;;6.10;4.20;;;9.10;65.30;;;;;;1873071;75;21085;-46
2021/10/01 04:46:13;;;;;;;5.47;4.00;;;9.10;65.20;;;;;;1872907;76;21039;-47
2021/10/01 04:48:44;;;;;;;8.03;5.05;;;9.20;65.10;;;;;;1872872;76;21011;-48
2021/10/01 04:51:15;;;;;;;7.20;5.22;;;9.10;65.40;;;;;;1872623;76;21023;-48
2021/10/01 04:53:45;;;;;;;7.60;5.53;;;9.20;65.30;;;;;;1873011;76;21039;-50
2021/10/01 04:56:14;;;;;;;6.47;4.95;;;9.20;65.50;;;;;;1872925;75;21026;-48
2021/10/01 04:58:43;;;;;;;6.35;4.28;;;9.20;65.60;;;;;;1872892;76;21015;-47
2021/10/01 05:01:30;;;;;;;6.08;4.33;;;9.20;65.80;;;;;;1872864;76;21100;-51
2021/10/01 05:04:16;;;;;;;8.60;5.40;;;9.30;65.50;;;;;;1875768;75;21062;-47
2021/10/01 05:06:47;;;;;;;11.33;4.10;;;9.30;65.60;;;;;;1879093;76;21091;-49
2021/10/01 05:09:34;;;;;;;7.95;4.40;;;9.40;65.80;;;;;;1882216;76;21117;-48
2021/10/01 05:12:23;;;;;;;6.30;4.33;;;9.40;65.70;;;;;;1882368;75;21071;-50
2021/10/01 05:15:12;;;;;;;5.05;4.55;;;9.50;65.50;;;;;;1882299;76;21658;-49
2021/10/01 05:17:59;;;;;;;10.28;4.67;;;9.60;65.20;;;;;;1882283;76;21105;-47
2021/10/01 05:20:46;;;;;;;6.42;4.03;;;9.60;65.70;;;;;;1882279;76;21096;-49
2021/10/01 05:23:25;;;;;;;8.10;5.10;;;9.70;65.30;;;;;;1881498;76;21075;-47
2021/10/01 05:25:54;;;;;;;5.65;3.87;;;9.70;64.50;;;;;;1882459;75;21030;-49
2021/10/01 05:28:24;;;;;;;4.10;3.77;;;9.70;64.90;;;;;;1882322;76;21076;-50
2021/10/01 05:30:53;;;;;;;7.40;4.65;;;9.80;65.10;;;;;;1882314;75;21030;-47
2021/10/01 05:33:23;;;;;;;4.72;3.20;;;9.80;65.20;;;;;;1882398;76;21112;-48
2021/10/01 05:35:52;;;;;;;12.73;7.05;;;9.90;64.40;;;;;;1882512;75;21050;-49
2021/10/01 05:38:24;;;;;;;7.78;4.72;;;9.90;64.20;;;;;;1882457;76;21532;-47
2021/10/01 05:40:53;;;;;;;9.65;5.75;;;9.80;63.90;;;;;;1882399;76;21006;-49
2021/10/01 05:43:26;;;;;;;7.83;5.97;;;9.80;64.40;;;;;;1882394;76;21003;-48
2021/10/01 05:45:58;;;;;;;10.30;4.62;;;9.90;64.50;;;;;;1882404;76;21015;-51
2021/10/01 05:48:50;;;;;;;5.53;3.60;;;9.90;64.20;;;;;;1882267;76;21078;-48
2021/10/01 05:51:33;;;;;;;7.67;3.98;;;9.90;64.20;;;;;;1882549;76;21062;-47
2021/10/01 05:54:21;;;;;;;36.83;4.87;;;9.90;63.60;;;;;;1882320;76;21056;-47
2021/10/01 05:57:02;;;;;;;10.82;4.37;;;9.90;64.00;;;;;;1878748;76;21098;-50
2021/10/01 05:59:37;;;;;;;8.93;5.50;;;9.90;64.30;;;;;;1880882;76;21079;-49
2021/10/01 06:02:08;;;;;;;5.95;5.08;;;10.00;64.40;;;;;;1882257;76;21838;-49
2021/10/01 06:04:37;;;;;;;7.97;5.05;;;9.90;63.80;;;;;;1880024;75;21118;-46
2021/10/01 06:07:07;;;;;;;5.17;3.70;;;10.00;63.40;;;;;;1872957;77;21097;-50
2021/10/01 06:09:37;;;;;;;5.28;3.87;;;10.00;63.00;;;;;;1872809;77;21047;-49
2021/10/01 06:12:07;;;;;;;11.00;4.40;;;10.00;62.70;;;;;;1872811;77;21097;-49
2021/10/01 06:14:36;;;;;;;13.60;5.70;;;10.00;62.90;;;;;;1872856;77;21066;-49
2021/10/01 06:17:06;;;;;;;3.30;2.80;;;9.90;63.00;;;;;;1873090;76;21093;-48
2021/10/01 06:19:38;;;;;;;5.08;4.12;;;10.00;62.90;;;;;;1872819;77;21023;-49
2021/10/01 06:22:08;;;;;;;6.62;4.17;;;10.00;63.20;;;;;;1872940;77;21035;-50
2021/10/01 06:24:38;;;;;;;8.75;4.70;;;10.10;63.60;;;;;;1872841;77;21003;-48
2021/10/01 06:27:07;;;;;;;8.03;4.60;;;10.10;62.70;;;;;;1872930;77;21007;-49
2021/10/01 06:29:37;;;;;;;3.40;3.05;;;10.00;62.80;;;;;;1872818;77;21022;-49
2021/10/01 06:32:07;;;;;;;7.22;4.03;;;10.00;62.20;;;;;;1872741;76;21093;-47
2021/10/01 06:34:36;;;;;;;2.47;2.27;;;10.10;62.70;;;;;;1872823;77;21018;-50
2021/10/01 06:37:05;;;;;;;4.95;2.45;;;10.10;62.50;;;;;;1872913;77;21031;-48
2021/10/01 06:39:35;;;;;;;7.83;3.62;;;10.10;61.60;;;;;;1872833;77;21027;-47
2021/10/01 06:42:05;;;;;;;3.52;2.37;;;10.10;62.10;;;;;;1872846;77;21035;-50
2021/10/01 06:44:35;;;;;;;4.37;3.05;;;10.10;61.40;;;;;;1872847;77;21011;-48
2021/10/01 06:47:08;;;;;;;4.35;3.08;;;10.10;61.60;;;;;;1872799;75;21093;-50
2021/10/01 07:39:20;;;;;;;5.55;3.37;;;11.10;60.50;;;;;;1891284;76;21042;-52
2021/10/01 08:20:23;;;;;;;7.60;3.47;;;11.90;59.40;;;;;;1872208;77;21144;-49
2021/10/01 08:22:53;;;;;;;4.08;3.47;;;11.90;59.30;;;;;;1872104;76;21067;-50
2021/10/01 08:25:22;;;;;;;3.55;2.95;;;11.90;59.50;;;;;;1872125;76;21085;-50
2021/10/01 08:27:51;;;;;;;4.67;3.72;;;11.90;59.40;;;;;;1872031;75;21117;-52
2021/10/01 08:30:21;;;;;;;3.62;2.90;;;11.90;59.90;;;;;;1872200;77;21023;-50
2021/10/01 08:32:51;;;;;;;4.80;3.27;;;11.90;59.90;;;;;;1871926;77;20999;-50
2021/10/01 08:35:24;;;;;;;4.25;3.50;;;11.90;59.70;;;;;;1871901;77;21113;-49
2021/10/01 08:37:57;;;;;;;3.50;3.08;;;11.90;59.90;;;;;;1871495;75;21072;-48
2021/10/01 08:40:27;;;;;;;4.60;3.30;;;12.00;60.00;;;;;;1871928;75;21491;-50
2021/10/01 08:42:57;;;;;;;6.37;3.77;;;12.00;60.00;;;;;;1871885;75;21134;-50
2021/10/01 08:45:27;;;;;;;8.30;2.75;;;12.10;60.10;;;;;;1872002;75;21110;-50
2021/10/01 08:48:02;;;;;;;3.72;3.17;;;12.20;60.10;;;;;;1871800;75;21080;-50
2021/10/01 08:50:33;;;;;;;5.22;3.55;;;12.20;60.30;;;;;;1872070;75;21029;-51
2021/10/01 08:53:05;;;;;;;4.67;3.58;;;12.30;60.60;;;;;;1871892;75;21081;-49
2021/10/01 08:55:36;;;;;;;5.97;4.37;;;12.30;60.70;;;;;;1872114;76;21153;-52
2021/10/01 08:58:06;;;;;;;3.80;3.33;;;12.40;60.60;;;;;;1872160;75;21072;-51
2021/10/01 09:00:36;;;;;;;5.85;3.12;;;12.40;60.80;;;;;;1872151;77;21090;-49
2021/10/01 09:03:06;;;;;;;2.30;2.10;;;12.40;60.60;;;;;;1872007;75;21032;-48
2021/10/01 09:05:35;;;;;;;5.65;3.17;;;12.50;60.50;;;;;;1871971;77;21013;-49
2021/10/01 09:08:22;;;;;;;4.00;3.60;;;12.40;60.50;;;;;;1880921;75;21151;-46
2021/10/01 09:11:07;;;;;;;6.35;2.60;;;12.40;61.00;;;;;;1881640;75;21537;-49
2021/10/01 09:13:38;;;;;;;3.95;2.55;;;12.50;60.60;;;;;;1880548;75;21189;-49
2021/10/01 09:16:10;;;;;;;3.37;2.87;;;12.50;60.70;;;;;;1881728;75;21028;-49
2021/10/01 09:18:40;;;;;;;4.20;3.47;;;12.50;60.50;;;;;;1881579;76;21024;-51
2021/10/01 09:21:18;;;;;;;7.20;3.55;;;12.50;60.60;;;;;;1881675;75;21080;-51
2021/10/01 09:24:03;;;;;;;4.80;3.27;;;12.50;60.90;;;;;;1880745;75;21553;-49
2021/10/01 09:26:34;;;;;;;5.57;2.17;;;12.60;60.60;;;;;;1881168;76;21080;-48
2021/10/01 09:29:08;;;;;;;3.60;2.98;;;12.60;60.90;;;;;;1881572;75;21068;-51
2021/10/01 09:31:46;;;;;;;5.83;3.05;;;12.50;61.00;;;;;;1881558;75;21514;-49
2021/10/01 09:34:27;;;;;;;4.60;2.50;;;12.50;61.00;;;;;;1881397;76;21036;-49
2021/10/01 09:37:09;;;;;;;2.20;2.00;;;12.50;61.10;;;;;;1859436;76;21048;-51
2021/10/01 09:39:41;;;;;;;9.80;4.28;;;12.50;60.90;;;;;;1881306;76;21080;-48
2021/10/01 09:42:23;;;;;;;6.28;4.05;;;12.60;61.80;;;;;;1881553;76;21114;-49
2021/10/01 09:45:05;;;;;;;8.50;5.00;;;12.60;60.80;;;;;;1881371;75;21247;-49
2021/10/01 09:47:37;;;;;;;4.22;3.02;;;12.70;60.60;;;;;;1880059;75;21112;-50
2021/10/01 09:50:11;;;;;;;4.53;2.72;;;12.70;60.30;;;;;;1880168;75;21134;-47
2021/10/01 09:52:56;;;;;;;7.47;4.28;;;12.70;60.50;;;;;;1881527;75;21099;-47
2021/10/01 09:55:41;;;;;;;4.55;3.22;;;12.60;60.90;;;;;;1881664;76;21001;-50
2021/10/01 09:58:16;;;;;;;3.80;2.67;;;12.70;61.00;;;;;;1881546;75;21100;-51
2021/10/01 10:00:54;;;;;;;8.05;2.70;;;12.70;60.40;;;;;;1881438;76;21075;-47
2021/10/01 10:03:29;;;;;;;4.55;3.87;;;12.70;60.70;;;;;;1881506;75;21137;-51
2021/10/01 10:06:04;;;;;;;3.17;2.75;;;12.70;60.90;;;;;;1881484;76;21040;-50
2021/10/01 10:08:37;;;;;;;;;;;12.70;60.70;;;;;;1884124;75;21127;-50
2021/10/01 10:11:07;;;;;;;6.05;3.58;;;12.70;60.40;;;;;;1881672;76;20388;-51
2021/10/01 10:13:48;;;;;;;4.58;3.35;;;12.70;60.70;;;;;;1881537;75;21056;-51
2021/10/01 10:16:19;;;;;;;6.85;3.10;;;12.80;61.00;;;;;;1881436;76;21024;-50
2021/10/01 10:18:54;;;;;;;5.72;3.83;;;12.80;60.70;;;;;;1881632;75;21103;-50
2021/10/01 10:21:24;;;;;;;4.30;2.70;;;12.80;60.80;;;;;;1881504;76;21068;-48
2021/10/01 10:23:53;;;;;;;9.18;3.30;;;12.80;60.40;;;;;;1881442;75;21067;-51
2021/10/01 10:26:24;;;;;;;6.22;3.47;;;12.80;61.10;;;;;;1881517;76;21029;-47
2021/10/01 10:28:56;;;;;;;7.47;3.52;;;12.90;61.20;;;;;;1881338;76;21210;-51
2021/10/01 10:31:27;;;;;;;7.00;3.35;;;12.90;61.70;;;;;;1881489;75;21084;-51
2021/10/01 10:33:57;;;;;;;4.90;3.80;;;12.90;61.70;;;;;;1881444;75;21099;-47
2021/10/01 10:36:32;;;;;;;5.62;3.33;;;13.00;62.10;;;;;;1881304;76;21177;-51
2021/10/01 10:39:17;;;;;;;3.83;2.42;;;13.00;61.90;;;;;;1881584;75;21036;-49
2021/10/01 10:41:51;;;;;;;3.95;3.30;;;13.00;61.90;;;;;;1882010;75;21024;-51
2021/10/01 10:44:23;;;;;;;4.95;3.40;;;13.00;61.70;;;;;;1878263;76;21062;-51
2021/10/01 10:46:53;;;;;;;4.03;2.72;;;13.00;61.80;;;;;;1878081;76;21472;-51
2021/10/01 10:49:26;;;;;;;3.95;2.65;;;13.00;61.40;;;;;;1846102;76;21159;-51
2021/10/01 10:52:16;;;;;;;8.00;3.70;;;13.00;62.00;;;;;;1890514;76;21076;-50
2021/10/01 10:54:51;;;;;;;7.35;3.90;;;13.00;61.80;;;;;;1847599;76;21056;-51
2021/10/01 10:57:28;;;;;;;7.65;3.10;;;13.10;61.90;;;;;;1846067;78;21026;-49
2021/10/01 11:00:04;;;;;;;4.42;3.12;;;13.10;61.60;;;;;;1911565;74;21108;-50
2021/10/01 11:02:44;;;;;;;5.17;2.60;;;13.20;61.80;;;;;;1922078;75;21089;-50
2021/10/01 11:05:26;;;;;;;3.05;2.75;;;13.20;60.80;;;;;;1922025;75;21092;-50
2021/10/01 11:07:58;;;;;;;5.15;3.58;;;13.20;60.90;;;;;;1918887;74;21187;-49
2021/10/01 11:10:41;;;;;;;3.10;2.60;;;13.20;61.10;;;;;;1915329;75;21109;-50
2021/10/01 11:13:25;;;;;;;3.05;2.75;;;13.30;61.30;;;;;;1915024;75;21104;-48
2021/10/01 11:16:12;;;;;;;6.83;3.35;;;13.30;61.00;;;;;;1915342;75;21442;-50
2021/10/01 11:18:47;;;;;;;2.27;1.90;;;13.40;61.10;;;;;;1915024;75;21132;-50
2021/10/01 11:21:35;;;;;;;4.12;3.45;;;13.50;60.60;;;;;;1915630;75;21051;-48
2021/10/01 11:24:16;;;;;;;6.33;4.72;;;13.50;60.60;;;;;;1915240;75;21102;-51
2021/10/01 11:26:53;;;;;;;3.70;3.15;;;13.50;61.60;;;;;;1915178;75;21058;-51
2021/10/01 11:29:25;;;;;;;4.28;2.80;;;13.50;61.00;;;;;;1915187;75;21538;-49
2021/10/01 11:31:56;;;;;;;17.23;6.15;;;13.50;60.00;;;;;;1915208;75;21508;-49
2021/10/01 11:34:43;;;;;;;4.15;2.77;;;13.40;60.10;;;;;;1913204;75;21136;-50
2021/10/01 11:37:32;;;;;;;4.22;3.45;;;13.30;60.20;;;;;;1915214;75;21023;-50
2021/10/01 11:40:06;;;;;;;4.37;2.30;;;13.30;60.90;;;;;;1915282;75;21136;-49
2021/10/01 11:42:44;;;;;;;7.67;4.10;;;13.20;60.70;;;;;;1915432;75;21069;-50
2021/10/01 11:45:22;;;;;;;5.30;4.17;;;13.20;61.00;;;;;;1915684;75;21023;-47
2021/10/01 11:48:03;;;;;;;5.00;3.80;;;13.20;61.20;;;;;;1915922;75;21038;-46
2021/10/01 11:50:35;;;;;;;7.45;3.25;;;13.20;61.40;;;;;;1916120;75;21050;-47
2021/10/01 11:53:07;;;;;;;5.40;2.72;;;13.20;61.60;;;;;;1915953;75;21090;-48
2021/10/01 11:55:37;;;;;;;8.75;2.75;;;13.20;61.20;;;;;;1916041;75;21027;-48
2021/10/01 11:58:18;;;;;;;6.78;3.12;;;13.20;61.00;;;;;;1915887;75;21011;-46
2021/10/01 12:00:48;;;;;;;4.45;2.65;;;13.20;61.00;;;;;;1915967;75;21090;-47
2021/10/01 12:03:18;;;;;;;6.85;3.47;;;13.20;61.20;;;;;;1915812;75;21027;-45
2021/10/01 12:05:52;;;;;;;4.55;3.15;;;13.20;61.20;;;;;;1915768;75;20999;-45
2021/10/01 12:08:24;;;;;;;5.30;4.00;;;13.20;61.20;;;;;;1898517;75;21129;-46
2021/10/01 12:10:56;;;;;;;8.83;3.87;;;13.20;61.20;;;;;;1884646;75;21028;-44
2021/10/01 12:13:27;;;;;;;4.83;2.70;;;13.30;61.60;;;;;;1884998;75;21185;-43
2021/10/01 12:16:05;;;;;;;5.42;2.92;;;13.30;61.20;;;;;;1884793;76;21024;-44
2021/10/01 12:18:42;;;;;;;5.42;4.37;;;13.40;61.10;;;;;;1884995;76;21076;-46
2021/10/01 12:21:25;;;;;;;5.08;2.62;;;13.30;61.10;;;;;;1884840;75;21001;-46
2021/10/01 12:24:04;;;;;;;4.85;3.02;;;13.40;61.00;;;;;;1884884;76;21056;-48
2021/10/01 12:26:39;;;;;;;4.83;3.37;;;13.40;61.00;;;;;;1878451;75;21084;-48
2021/10/01 12:29:16;;;;;;;10.07;3.03;;;13.40;60.90;;;;;;1884138;75;21581;-45
2021/10/01 12:31:53;;;;;;;4.08;2.52;;;13.40;60.40;;;;;;1884220;75;21834;-46
2021/10/01 12:34:28;;;;;;;4.15;2.95;;;13.50;60.40;;;;;;1884572;75;21076;-50
2021/10/01 12:37:09;;;;;;;2.47;1.90;;;13.50;60.60;;;;;;1882222;76;21478;-50
2021/10/01 12:39:41;;;;;;;7.67;2.80;;;13.50;60.20;;;;;;1883994;75;21094;-49
2021/10/01 12:42:13;;;;;;;4.58;2.87;;;13.60;60.50;;;;;;1884205;75;21083;-50
2021/10/01 12:44:44;;;;;;;5.85;2.98;;;13.60;59.50;;;;;;1885057;75;21089;-47
2021/10/01 12:47:16;;;;;;;3.30;2.12;;;13.70;59.70;;;;;;1883770;76;21161;-49
2021/10/01 12:50:04;;;;;;;3.85;2.55;;;13.60;59.50;;;;;;1884531;75;21122;-48
2021/10/01 12:52:35;;;;;;;2.42;2.17;;;13.70;60.00;;;;;;1884843;75;21106;-49
2021/10/01 12:55:12;;;;;;;2.90;2.65;;;13.70;59.90;;;;;;1884681;75;21149;-50
2021/10/01 12:57:52;;;;;;;5.87;2.15;;;13.70;60.00;;;;;;1884803;75;21001;-49
2021/10/01 13:00:23;;;;;;;4.60;2.92;;;13.80;59.90;;;;;;1884923;76;21008;-50
2021/10/01 13:02:55;;;;;;;3.70;2.40;;;13.80;60.20;;;;;;1885080;75;21063;-50
2021/10/01 13:05:38;;;;;;;4.20;3.17;;;13.80;59.90;;;;;;1884913;76;21850;-50
2021/10/01 13:08:10;;;;;;;10.05;5.20;;;13.80;60.20;;;;;;1884996;75;21012;-49
2021/10/01 13:10:51;;;;;;;6.30;4.05;;;13.80;60.50;;;;;;1885134;75;21056;-48
2021/10/01 13:13:23;;;;;;;8.60;4.10;;;13.80;60.60;;;;;;1885065;75;21040;-51
2021/10/01 13:15:55;;;;;;;8.43;4.17;;;13.80;60.50;;;;;;1885056;75;21020;-50
2021/10/01 13:18:36;;;;;;;5.75;2.77;;;13.80;60.90;;;;;;1885163;75;21083;-50
2021/10/01 13:21:23;;;;;;;3.50;2.65;;;13.80;61.10;;;;;;1884581;75;21057;-47
2021/10/01 13:24:03;;;;;;;4.90;3.05;;;13.80;60.10;;;;;;1885360;76;21028;-47
2021/10/01 13:26:42;;;;;;;6.90;3.05;;;13.70;60.50;;;;;;1885169;75;21032;-49
2021/10/01 13:29:13;;;;;;;4.87;2.60;;;13.70;60.90;;;;;;1885274;75;21036;-50
2021/10/01 13:31:44;;;;;;;4.15;2.98;;;13.70;60.60;;;;;;1885284;75;21032;-50
2021/10/01 13:34:14;;;;;;;5.75;4.20;;;13.60;60.60;;;;;;1885050;75;21138;-48
2021/10/01 13:36:44;;;;;;;6.22;3.90;;;13.60;61.00;;;;;;1885129;75;21028;-47
2021/10/01 13:39:14;;;;;;;5.25;3.92;;;13.50;61.00;;;;;;1885194;75;21032;-48
2021/10/01 13:41:43;;;;;;;7.37;3.83;;;13.50;61.10;;;;;;1885195;75;21005;-49
2021/10/01 13:44:14;;;;;;;5.30;3.30;;;13.50;61.40;;;;;;1885115;76;21032;-48
2021/10/01 13:46:43;;;;;;;7.53;3.95;;;13.40;61.60;;;;;;1885210;75;21470;-49
2021/10/01 13:49:13;;;;;;;4.95;2.80;;;13.40;61.80;;;;;;1885096;75;21036;-50
2021/10/01 13:51:43;;;;;;;6.75;3.75;;;13.40;62.00;;;;;;1885171;76;21130;-50
2021/10/01 13:54:12;;;;;;;4.92;2.90;;;13.30;62.10;;;;;;1885055;76;21094;-48
2021/10/01 13:56:41;;;;;;;11.53;4.33;;;13.30;62.30;;;;;;1885062;76;21040;-49
2021/10/01 13:59:11;;;;;;;9.88;4.47;;;13.30;62.40;;;;;;1885143;75;21028;-49
2021/10/01 14:01:41;;;;;;;5.53;2.83;;;13.30;62.30;;;;;;1885173;75;21036;-46
2021/10/01 14:04:10;;;;;;;2.92;2.60;;;13.30;62.50;;;;;;1885098;75;21023;-45
2021/10/01 14:06:39;;;;;;;6.03;3.30;;;13.30;62.20;;;;;;1885028;75;21028;-50
2021/10/01 14:09:09;;;;;;;8.13;4.08;;;13.20;62.10;;;;;;1886847;75;21058;-49
2021/10/01 14:11:38;;;;;;;4.70;3.02;;;13.20;62.00;;;;;;1891573;75;21103;-49
2021/10/01 14:14:07;;;;;;;4.08;2.80;;;13.20;62.20;;;;;;1891595;75;21032;-48
2021/10/01 14:16:37;;;;;;;6.67;3.00;;;13.20;62.00;;;;;;1891649;75;21024;-48
2021/10/01 14:19:06;;;;;;;6.40;3.45;;;13.10;62.10;;;;;;1891696;75;21106;-49
2021/10/01 14:21:36;;;;;;;2.98;2.67;;;13.10;62.20;;;;;;1891547;76;21043;-47
2021/10/01 14:24:06;;;;;;;5.78;3.62;;;13.10;62.40;;;;;;1891601;76;21087;-49
2021/10/01 14:26:35;;;;;;;5.05;3.58;;;13.10;62.60;;;;;;1891464;76;21153;-47
2021/10/01 14:29:08;;;;;;;7.85;3.37;;;13.10;62.70;;;;;;1891718;75;21528;-48
2021/10/01 14:31:37;;;;;;;6.00;3.60;;;13.10;62.70;;;;;;1891684;75;21500;-48
2021/10/01 14:34:06;;;;;;;6.22;4.05;;;13.10;62.70;;;;;;1891594;75;21028;-46
2021/10/01 14:36:36;;;;;;;6.80;3.50;;;13.10;63.90;;;;;;1891531;75;21129;-47
2021/10/01 14:39:05;;;;;;;6.55;3.83;;;13.00;63.20;;;;;;1891609;75;21090;-48
2021/10/01 14:41:34;;;;;;;6.03;4.03;;;13.00;63.10;;;;;;1891597;74;21149;-46
2021/10/01 14:44:04;;;;;;;5.70;3.02;;;13.00;63.00;;;;;;1891697;75;21039;-46
2021/10/01 14:46:34;;;;;;;5.00;3.90;;;13.00;63.30;;;;;;1891570;74;21036;-45
2021/10/01 14:49:03;;;;;;;6.85;4.17;;;13.00;63.30;;;;;;1891539;75;21023;-49